Duck Creek Village, Utah
Current Conditions -  °F | °C
As of 9:53 AM on Thursday 30 Oct 2014 (Local Time) from KCDC Reporting Station
Clear Clear  
Wind Chill: 47°   Ceiling: Unl
Heat Index: 47°   Visibility: 10mi
Dew Point: 21°   Wind: 3mph
Humidity: 36%   Direction: NA
Pressure: 30.3"   Gusts: NA
Location:  37.53°N, 112.67°W
Report Text: KCDC 301553Z AUTO VRB03KT 10SM CLR 08/M06 A3030 RMK AO2 SLP232 T00831061 TSNO
Loading
Personal Weather Stations






























Interactive Weather Map
Tropical Storm Tracking
New forecast layout! Learn more

10-Day Weather Forecast

Advertisements
Track Severe Weather on mobile